Impacts METAR Board
IDs:

RPLC - Angeles City/Clark I, BA, PH

Updated at: 0100 UTC 10 Dec 2022
Potential Impact None Slight Moderate High
Time 09/13Z 09/14Z 09/15Z 09/16Z 09/17Z 09/18Z 09/19Z 09/20Z 09/21Z 09/22Z 09/23Z 10/00Z 10/01Z
Temp79 77 79 77 77 75 75 75 75 75 75 77 79
Dewpt75 75 73 73 73 73 73 72 72 72 72 72 73
Altim29.76 29.76 29.76 29.73 29.73 29.70 29.70 29.70 29.70 29.73 29.73 29.73 29.76
VIS4.35 3.11 4.35 4.97 4.97 4.97 4.97 4.97 4.97 3.73 3.11 4.35 4.97
CIG100 100 300 300 100 100 100 100 100 100 100 100 100
CoverBKNOVCBKNBKNBKNBKNBKNBKNBKNBKNOVCOVCOVC
FltCatMVFRMVFRMVFRMVFRMVFRMVFRMVFRMVFRMVFRMVFRMVFRMVFRMVFR
WXTS-SHRAGR--------------HZ----
WDir10360300360360360360360360360360340360
WSpd4 5 3 2 2 2 4 4 2 2 2 2 4
WGst-- -- -- -- -- -- -- -- -- -- -- -- --
Raw hourly METARs
RPLC 091300Z 01004KT 7000 TS FEW015CB SCT020 BKN100 26/24 Q1008 RMK A2977 CB NW
RPLC 091400Z 36005KT 5000 -SHRA FEW015CB SCT020 OVC100 25/24 Q1008 RETS RMK A2977 CB W
RPLC 091500Z 30003KT 7000 SCT020 BKN300 26/23 Q1008 RESHRA NOSIGRMK A2977
RPLC 091600Z 36002KT 8000 SCT020 BKN300 25/23 Q1007 NOSIG RMK A2974
RPLC 091700Z 36002KT 8000 SCT020 BKN100 25/23 Q1007 NOSIG RMK A2974
RPLC 091800Z 36002KT 8000 SCT020 BKN100 24/23 Q1006 NOSIG RMK A2971
RPLC 091900Z 36004KT 8000 SCT020 BKN100 24/23 Q1006 NOSIG RMK A2971
RPLC 092000Z 36004KT 8000 SCT020 BKN100 24/22 Q1006 NOSIG RMK A2971
RPLC 092100Z 36002KT 8000 SCT020 BKN100 24/22 Q1006 NOSIG RMK A2971
RPLC 092200Z 36002KT 6000 SCT020 BKN100 24/22 Q1007 NOSIG RMK A2974
RPLC 092300Z 36002KT 5000 HZ SCT020 OVC100 24/22 Q1007 NOSIG RMK A2974
RPLC 100000Z 34002KT 7000 SCT020 OVC100 25/22 Q1007 NOSIG RMK A2974
RPLC 100100Z 36004KT 8000 SCT020 OVC100 26/23 Q1008 NOSIG RMK A2977



Page loaded:  01:05 UTC  |   05:05 PM Pacific  |   06:05 PM Mountain  |   07:05 PM Central  |   08:05 PM Eastern

 

ADVISORIES

FORECASTS

FORECASTS

OBSERVATIONS

USER TOOLS

ABOUT US